x

Buoy A01 - Mass. Bay/stellwagen (44029) Wave Buoy

3:04 - Fri 3rd Jul 2015 All times are EDT. -4 hours from GMT.

  • Sig Wave height 1.6ft
  • Peak Period 8s
  • Wind
    7mph, 9mph gusts
  • Sea Temp 61°f
  • Ar Temp 65°f
  • Sea Pressure 1013.5mb
  • Buoy A01 - Mass. Bay/stellwagen
  • Buoy A01 - Mass. Bay/stellwagen

More Historic Weather Station data

Upgrade to MSW Pro to gain access to the past 30 days of data for over 8000 Wavebouys and Weather Stations around the globe.

Join Pro

Comparision Forecast

View Surf forecast
   
Sex 07/03 3:04 1.6ft 8s 7 9 mph 1013.5mb 61f 65f
2:04 1.6ft 8s 9
mph
1013.4mb 61f 65f
1:04 1.6ft 8s 7 9 mph 1013.5mb 61f 65f
12:04 1.6ft 6s 4 7 mph 1013.1mb 61f 64f
11:04 2ft 6s 7
mph
1013.4mb 59f 65f
10:04  -   -  7
mph
1013.6mb 60f 63f
9:04 2.5ft 8s 4 9 mph 1013.4mb 58f 63f
8:04 2ft 8s 9
mph
1013mb 58f 62f
7:04 2ft 8s 11 13 mph 1012.3mb 58f 63f
6:04 1.6ft 8s 11 13 mph 1011.6mb 59f 62f
5:04 1.6ft 8s 11 13 mph 1011mb 59f 62f
4:04 1.6ft 8s 11 13 mph 1010.7mb 60f 62f
3:04 2ft 8s 11
mph
1010.2mb 60f 63f
2:04 2ft 8s 11 13 mph 1010.1mb 60f 64f
1:04 2.5ft 8s 4
mph
1010.1mb 59f 63f
12:04 1.6ft 8s 2 4 mph 1009.9mb 61f 65f
Qui 07/02 11:04 2.5ft 6s 2 4 mph 1010.3mb 62f 65f
10:04 2.5ft 8s 4
mph
1010.6mb 63f 65f
9:04 2.5ft 8s 4 7 mph 1010.4mb 62f 65f
8:04 3ft 8s 4 7 mph 1010.4mb 63f 65f
7:04 2.5ft 8s 2 4 mph 1010.3mb 61f 65f
6:04 2.5ft 8s 4
mph
1010.2mb 61f 65f
5:04 2.5ft 8s 7
mph
1010.5mb 59f 66f
4:04 2.5ft 8s 4 7 mph 1010.4mb 59f 66f
3:04 2ft 8s 7 9 mph 1010.5mb 58f 67f
2:04 1.6ft 8s 7
mph
1010.4mb 59f 66f
1:04 2ft 8s 7
mph
1010.6mb 58f 64f
12:04 2.5ft 6s 7 9 mph 1010.9mb 57f 64f
11:04 2.5ft 6s 7
mph
1011.2mb 58f 62f
10:04 2.5ft 8s 7 9 mph 1010.8mb 59f 62f
9:04 2.5ft 8s 9 11 mph 1010.6mb 59f 61f
8:04 2.5ft 8s 7 9 mph 1010.3mb 59f 61f
7:04 2.5ft 8s 9 11 mph 1010mb 59f 61f
6:04 2.5ft 8s 7
mph
1009.1mb 59f 62f
5:04 2.5ft 8s 9
mph
1009.1mb 59f 61f
4:04 2.5ft 8s 11
mph
1008.9mb 58f 62f
3:04 2.5ft 8s 11 13 mph 1008.7mb 58f 62f
2:04 2.5ft 4s 13
mph
1008.2mb 58f 63f
1:04 2ft 4s 16 18 mph 1007.9mb 59f 65f
12:04 2.5ft 5s 11 13 mph 1007.6mb 59f 64f
Qua 07/01 11:04 2.5ft 5s 9 11 mph 1007.3mb 59f 63f
10:04 2.5ft 6s 11 13 mph 1007.3mb 58f 63f
9:04 2.5ft 8s 16 22 mph 1006.8mb 59f 67f
8:04 2.5ft 5s 7 9 mph 1005.6mb 59f 64f
7:04 2.5ft 8s 11 13 mph 1004.9mb 59f 65f
6:04 3ft 8s 11 16 mph 1004.7mb 59f 66f
5:04 2.5ft 5s 9 11 mph 1004.8mb 59f 64f
4:04 3ft 5s 9
mph
1004.7mb 59f 63f
3:04 3.5ft 5s 13 16 mph 1005.4mb 60f 63f
2:04 4ft 5s 16 20 mph 1005.7mb 60f 62f
1:04 4.5ft 5s 20 25 mph 1006.1mb 59f 62f
12:04 4.5ft 5s 20 25 mph 1006.4mb 60f 63f
11:04 3.5ft 8s 20 25 mph 1007.2mb 60f 63f
10:04 3.5ft 8s 20 22 mph 1007.7mb 60f 62f
9:04 3ft 8s 9 11 mph 1011.1mb 60f 61f
8:04 3ft 8s 9 11 mph 1010.9mb 60f 61f
7:04 3ft 8s 16 18 mph 1010.5mb 60f 62f
6:04 2.5ft 8s 11
mph
1010.3mb 59f 61f
5:04 2ft 8s 9
mph
1011.4mb 59f 61f
4:04 2.5ft 8s 9 11 mph 1011.9mb 59f 61f
3:04 2.5ft 11s 9
mph
1011.9mb 59f 60f
2:04 2.5ft 8s 7 9 mph 1012.7mb 59f 61f
1:04 2.5ft 8s 4 7 mph 1013.3mb 59f 60f
12:04 2.5ft 8s 7
mph
1013.6mb 58f 61f
Ter 06/30 11:04 2.5ft 8s 11 13 mph 1013.7mb 59f 63f
10:04 2.5ft 8s 9 11 mph 1013.9mb 58f 62f
9:04 3.5ft 8s 11 13 mph 1013.2mb 58f 65f
8:04 3.5ft 8s 9 11 mph 1013mb 58f 63f
6:04 3.5ft 8s 9
mph
1013.4mb 59f 64f
5:04 3ft 8s 11 13 mph 1013.8mb 60f 63f
4:04 3.5ft 8s 9 11 mph 1014.1mb 59f 63f
3:04 3ft 8s 9
mph
1014.7mb 60f 64f
2:04 3ft 8s 7 9 mph 1014.5mb 58f 64f
1:04 2.5ft 8s 4 7 mph 1014.7mb 58f 64f
12:04 3ft 8s 7 9 mph 1015mb 58f 63f
11:04 3.5ft 11s 7 9 mph 1015mb 58f 63f
10:04 3.5ft 11s 4
mph
1014.7mb 58f 61f
9:04 3.5ft 11s 4
mph
1015.1mb 58f 61f
8:04 3ft 11s 4 7 mph 1015.1mb 58f 61f
7:04 3ft 8s 9 11 mph 1014.5mb 58f 61f
6:04 3.5ft 11s 4 7 mph 1014.2mb 58f 60f
5:04 3ft 8s 7
mph
1014mb 58f 60f
4:04 3ft 8s 9 11 mph 1013.8mb 58f 60f
3:04 3ft 8s 9
mph
1013.3mb 58f 60f
2:04 3.5ft 11s 4
mph
1012.9mb 58f 60f
1:04 3.5ft 8s 7 9 mph 1012.8mb 58f 61f
12:04 4ft 11s 13
mph
1012.3mb 58f 62f
Seg 06/29 11:04 3.5ft 8s 11 13 mph 1011.9mb 58f 62f
10:04 4ft 11s 9
mph
1011.7mb 57f 62f
9:04 4ft 8s 9
mph
1011mb 58f 63f